.
WxDataArchive / Data Records for 2006-01-02
2006-01-01 January 2006 2006-01-03

Data Records for Monday, 02 January 2006

Time	Temp	Chill	HIndex	Humid	Dewpt	 Wind 	HiWind	WindDir	Rain 	Barom 
-----	----	-----	------	-----	-----	------	------	-------	-----	----- 
00:00	41.3	38.8	41.3	81	35.9	4	9	90	0.00	29.802 
00:05	41.3	38.8	41.3	81	35.9	4	9	90	0.00	29.802 
00:10	41.3	38.8	41.3	81	35.9	4	7	90	0.00	29.802 
00:15	41.3	38.8	41.3	81	35.9	4	7	90	0.00	29.808 
00:20	41.2	41.2	41.2	83	36.4	3	6	90	0.00	29.808 
00:25	40.9	38.4	40.9	86	37.0	4	7	90	0.02	29.808 
00:30	40.6	40.6	40.6	87	37.0	3	6	112	0.00	29.797 
00:35	40.5	40.5	40.5	87	36.9	3	7	112	0.00	29.797 
00:40	40.5	40.5	40.5	88	37.2	3	9	90	0.00	29.797 
00:45	40.5	40.5	40.5	88	37.2	3	6	112	0.00	29.790 
00:50	40.5	37.9	40.5	88	37.2	4	10	90	0.00	29.790 
00:55	40.6	38.0	40.6	87	37.0	4	10	112	0.00	29.790 
01:00	40.6	40.6	40.6	87	37.0	3	6	90	0.00	29.790 
01:05	40.6	38.0	40.6	87	37.0	4	7	112	0.00	29.790 
01:10	40.6	38.0	40.6	87	37.0	4	9	112	0.00	29.790 
01:15	40.6	38.0	40.6	87	37.0	4	7	112	0.00	29.778 
01:20	40.6	38.0	40.6	88	37.3	4	8	112	0.01	29.778 
01:25	40.5	37.9	40.5	88	37.2	4	10	90	0.00	29.778 
01:30	40.5	40.5	40.5	88	37.2	3	9	112	0.00	29.777 
01:35	40.5	40.5	40.5	89	37.5	3	9	112	0.01	29.777 
01:40	40.3	37.7	40.3	89	37.3	4	7	90	0.02	29.777 
01:45	40.3	37.7	40.3	90	37.6	4	7	90	0.00	29.771 
01:50	40.3	40.3	40.3	90	37.6	3	6	90	0.00	29.771 
01:55	40.3	40.3	40.3	89	37.3	3	7	112	0.00	29.771 
02:00	40.5	37.9	40.5	90	37.8	4	9	90	0.01	29.763 
02:05	40.5	40.5	40.5	89	37.5	3	9	112	0.00	29.763 
02:10	40.5	37.9	40.5	89	37.5	4	8	90	0.00	29.763 
02:15	40.5	40.5	40.5	90	37.8	3	6	90	0.00	29.764 
02:20	40.3	40.3	40.3	90	37.6	3	6	90	0.00	29.764 
02:25	40.3	40.3	40.3	90	37.6	3	7	90	0.00	29.764 
02:30	40.3	37.7	40.3	90	37.6	4	8	90	0.00	29.764 
02:35	40.5	40.5	40.5	90	37.8	3	6	90	0.00	29.764 
02:40	40.5	40.5	40.5	90	37.8	3	7	112	0.00	29.764 
02:45	40.5	40.5	40.5	91	38.1	3	6	112	0.00	29.768 
02:50	40.6	40.6	40.6	91	38.2	3	6	112	0.00	29.768 
02:55	40.5	40.5	40.5	91	38.1	3	10	112	0.00	29.768 
03:00	40.5	37.9	40.5	91	38.1	4	10	112	0.00	29.761 
03:05	40.3	37.7	40.3	91	37.9	4	9	90	0.00	29.761 
03:10	40.3	37.7	40.3	91	37.9	4	9	112	0.00	29.761 
03:15	40.3	37.7	40.3	91	37.9	4	7	112	0.00	29.760 
03:20	40.2	37.5	40.2	92	38.1	4	9	112	0.00	29.760 
03:25	40.2	40.2	40.2	92	38.1	3	9	90	0.00	29.760 
03:30	40.2	40.2	40.2	92	38.1	3	7	112	0.00	29.748 
03:35	40.2	40.2	40.2	92	38.1	3	9	112	0.00	29.748 
03:40	40.2	37.5	40.2	92	38.1	4	11	90	0.00	29.748 
03:45	40.2	37.5	40.2	92	38.1	4	11	112	0.00	29.747 
03:50	40.2	40.2	40.2	92	38.1	3	6	90	0.00	29.747 
03:55	40.2	40.2	40.2	92	38.1	3	5	112	0.00	29.747 
04:00	40.2	40.2	40.2	92	38.1	3	10	112	0.00	29.743 
04:05	40.2	40.2	40.2	92	38.1	3	9	112	0.00	29.743 
04:10	40.2	40.2	40.2	92	38.1	3	7	112	0.00	29.743 
04:15	40.2	37.5	40.2	92	38.1	4	9	90	0.00	29.741 
04:20	40.2	37.5	40.2	92	38.1	4	9	90	0.02	29.741 
04:25	40.1	37.4	40.1	93	38.2	4	15	112	0.00	29.741 
04:30	40.1	36.6	40.1	93	38.2	5	11	90	0.00	29.730 
04:35	40.1	37.4	40.1	93	38.2	4	9	112	0.00	29.730 
04:40	40.1	37.4	40.1	93	38.2	4	9	112	0.00	29.730 
04:45	40.1	40.1	40.1	94	38.5	3	7	112	0.00	29.730 
04:50	40.1	37.4	40.1	94	38.5	4	9	112	0.00	29.730 
04:55	40.1	36.6	40.1	94	38.5	5	11	112	0.00	29.730 
05:00	40.1	36.6	40.1	94	38.5	5	11	112	0.00	29.717 
05:05	40.1	37.4	40.1	94	38.5	4	10	112	0.00	29.717 
05:10	40.1	37.4	40.1	94	38.5	4	10	90	0.00	29.717 
05:15	40.1	37.4	40.1	94	38.5	4	7	90	0.00	29.717 
05:20	40.1	37.4	40.1	94	38.5	4	8	90	0.00	29.717 
05:25	40.1	40.1	40.1	93	38.2	3	9	90	0.00	29.717 
05:30	40.1	37.4	40.1	93	38.2	4	8	112	0.00	29.715 
05:35	40.2	40.2	40.2	93	38.3	3	9	90	0.00	29.715 
05:40	40.2	37.5	40.2	93	38.3	4	11	90	0.00	29.715 
05:45	40.2	37.5	40.2	93	38.3	4	11	90	0.00	29.714 
05:50	40.2	37.5	40.2	93	38.3	4	13	90	0.00	29.714 
05:55	40.3	37.7	40.3	93	38.4	4	8	112	0.00	29.714 
06:00	40.3	36.8	40.3	93	38.4	5	11	90	0.00	29.715 
06:05	40.3	37.7	40.3	93	38.4	4	10	90	0.00	29.715 
06:10	40.3	37.7	40.3	93	38.4	4	8	112	0.00	29.715 
06:15	40.5	37.9	40.5	93	38.6	4	7	112	0.00	29.714 
06:20	40.5	37.9	40.5	93	38.6	4	7	90	0.00	29.714 
06:25	40.5	37.1	40.5	93	38.6	5	11	112	0.00	29.714 
06:30	40.5	37.1	40.5	93	38.6	5	9	112	0.00	29.712 
06:35	40.5	37.9	40.5	93	38.6	4	10	112	0.00	29.712 
06:40	40.6	38.0	40.6	93	38.7	4	9	90	0.00	29.712 
06:45	40.6	38.0	40.6	93	38.7	4	10	112	0.00	29.711 
06:50	40.6	37.2	40.6	93	38.7	5	10	112	0.00	29.711 
06:55	40.6	38.0	40.6	93	38.7	4	11	112	0.00	29.711 
07:00	40.5	37.9	40.5	93	38.6	4	10	90	0.00	29.702 
07:05	40.5	40.5	40.5	93	38.6	3	7	90	0.00	29.702 
07:10	40.5	40.5	40.5	93	38.6	3	6	90	0.00	29.702 
07:15	40.5	40.5	40.5	93	38.6	2	4	90	0.01	29.702 
07:20	40.5	40.5	40.5	93	38.6	1	4	68	0.02	29.702 
07:25	40.3	36.8	40.3	93	38.4	5	12	112	0.08	29.702 
07:30	40.3	40.3	40.3	94	38.7	3	6	90	0.03	29.698 
07:35	40.3	36.8	40.3	94	38.7	5	10	90	0.03	29.698 
07:40	40.3	37.7	40.3	94	38.7	4	10	112	0.00	29.698 
07:45	40.3	37.7	40.3	94	38.7	4	10	90	0.00	29.690 
07:50	40.3	36.8	40.3	94	38.7	5	11	112	0.00	29.690 
07:55	40.3	36.8	40.3	94	38.7	5	11	112	0.00	29.690 
08:00	40.5	37.1	40.5	94	38.9	5	14	112	0.00	29.682 
08:05	40.5	37.9	40.5	94	38.9	4	10	112	0.00	29.682 
08:10	40.6	37.2	40.6	94	39.0	5	11	112	0.00	29.682 
08:15	40.6	36.5	40.6	94	39.0	6	13	90	0.00	29.680 
08:20	40.6	37.2	40.6	94	39.0	5	11	90	0.00	29.680 
08:25	40.6	37.2	40.6	93	38.7	5	13	112	0.00	29.680 
08:30	40.6	38.0	40.6	93	38.7	4	11	112	0.00	29.681 
08:35	40.6	37.2	40.6	93	38.7	5	9	112	0.00	29.681 
08:40	40.6	37.2	40.6	93	38.7	5	10	112	0.00	29.681 
08:45	40.6	37.2	40.6	93	38.7	5	10	112	0.00	29.671 
08:50	40.6	38.0	40.6	93	38.7	4	10	90	0.00	29.671 
08:55	40.6	37.2	40.6	93	38.7	5	9	112	0.00	29.671 
09:00	40.8	38.2	40.8	93	38.9	4	11	112	0.00	29.675 
09:05	40.8	38.2	40.8	93	38.9	4	7	112	0.00	29.675 
09:10	40.9	38.4	40.9	93	39.0	4	9	112	0.00	29.675 
09:15	40.9	38.4	40.9	93	39.0	4	10	90	0.00	29.682 
09:20	41.1	38.6	41.1	93	39.2	4	10	90	0.00	29.682 
09:25	41.2	41.2	41.2	93	39.3	3	6	112	0.00	29.682 
09:30	41.3	38.0	41.3	93	39.4	5	11	90	0.00	29.687 
09:35	41.5	38.2	41.5	92	39.4	5	10	90	0.00	29.687 
09:40	41.3	38.0	41.3	92	39.2	5	10	90	0.00	29.687 
09:45	41.5	38.2	41.5	92	39.4	5	11	112	0.00	29.684 
09:50	41.5	37.5	41.5	92	39.4	6	13	90	0.00	29.684 
09:55	41.5	37.5	41.5	92	39.4	6	11	90	0.00	29.684 
10:00	41.6	39.2	41.6	92	39.5	4	9	112	0.00	29.684 
10:05	41.6	39.2	41.6	92	39.5	4	8	90	0.00	29.684 
10:10	41.8	39.4	41.8	92	39.6	4	9	112	0.00	29.684 
10:15	41.6	38.4	41.6	92	39.5	5	9	90	0.00	29.683 
10:20	41.6	38.4	41.6	92	39.5	5	10	112	0.00	29.683 
10:25	41.8	39.4	41.8	92	39.6	4	9	90	0.00	29.683 
10:30	41.8	38.6	41.8	92	39.6	5	11	112	0.00	29.678 
10:35	41.9	38.7	41.9	92	39.7	5	11	112	0.00	29.678 
10:40	42.1	38.9	42.1	92	39.9	5	11	90	0.00	29.678 
10:45	42.1	39.7	42.1	92	39.9	4	8	112	0.00	29.672 
10:50	42.1	39.7	42.1	92	39.9	4	7	112	0.00	29.672 
10:55	42.1	39.7	42.1	93	40.2	4	10	112	0.00	29.672 
11:00	42.1	39.7	42.1	93	40.2	4	12	90	0.00	29.664 
11:05	42.1	38.9	42.1	93	40.2	5	11	112	0.00	29.664 
11:10	42.2	39.9	42.2	93	40.3	4	7	112	0.00	29.664 
11:15	42.2	39.9	42.2	93	40.3	4	9	112	0.00	29.665 
11:20	42.2	39.9	42.2	93	40.3	4	10	90	0.00	29.665 
11:25	42.2	39.1	42.2	93	40.3	5	13	112	0.00	29.665 
11:30	42.2	39.9	42.2	93	40.3	4	6	90	0.00	29.661 
11:35	42.1	39.7	42.1	93	40.2	4	10	90	0.00	29.661 
11:40	42.1	38.9	42.1	93	40.2	5	13	90	0.00	29.661 
11:45	42.2	39.9	42.2	93	40.3	4	11	112	0.00	29.654 
11:50	42.2	39.9	42.2	93	40.3	4	7	90	0.00	29.654 
11:55	42.2	39.9	42.2	94	40.6	4	11	112	0.00	29.654 
12:00	42.2	39.1	42.2	94	40.6	5	9	112	0.00	29.645 
12:05	42.2	39.1	42.2	94	40.6	5	10	112	0.00	29.645 
12:10	42.3	42.3	42.3	94	40.7	3	9	112	0.00	29.645 
12:15	42.3	39.2	42.3	94	40.7	5	13	112	0.00	29.633 
12:20	42.3	40.0	42.3	94	40.7	4	12	90	0.00	29.633 
12:25	42.5	40.2	42.5	94	40.9	4	9	90	0.00	29.633 
12:30	42.5	42.5	42.5	95	41.2	3	8	90	0.00	29.619 
12:35	42.3	39.2	42.3	95	41.0	5	12	90	0.00	29.619 
12:40	42.3	39.2	42.3	95	41.0	5	10	90	0.00	29.619 
12:45	42.5	39.4	42.5	95	41.2	5	10	90	0.00	29.611 
12:50	42.5	39.4	42.5	95	41.2	5	10	112	0.00	29.611 
12:55	42.5	40.2	42.5	95	41.2	4	11	112	0.00	29.611 
13:00	42.5	42.5	42.5	95	41.2	3	9	112	0.00	29.596 
13:05	42.5	39.4	42.5	95	41.2	5	10	112	0.00	29.596 
13:10	42.5	38.7	42.5	95	41.2	6	10	112	0.00	29.596 
13:15	42.5	40.2	42.5	95	41.2	4	11	90	0.00	29.594 
13:20	42.5	39.4	42.5	95	41.2	5	14	90	0.00	29.594 
13:25	42.5	39.4	42.5	95	41.2	5	11	112	0.00	29.594 
13:30	42.5	39.4	42.5	95	41.2	5	12	112	0.00	29.585 
13:35	42.3	40.0	42.3	95	41.0	4	12	112	0.00	29.585 
13:40	42.3	39.2	42.3	95	41.0	5	11	90	0.00	29.585 
13:45	42.3	40.0	42.3	95	41.0	4	10	112	0.00	29.581 
13:50	42.3	39.2	42.3	95	41.0	5	12	112	0.00	29.581 
13:55	42.3	38.5	42.3	95	41.0	6	12	90	0.00	29.581 
14:00	42.3	40.0	42.3	95	41.0	4	12	112	0.00	29.571 
14:05	42.3	40.0	42.3	95	41.0	4	12	112	0.00	29.571 
14:10	42.3	39.2	42.3	95	41.0	5	14	112	0.00	29.571 
14:15	42.5	40.2	42.5	95	41.2	4	12	112	0.00	29.561 
14:20	42.3	40.0	42.3	95	41.0	4	12	112	0.00	29.561 
14:25	42.3	39.2	42.3	95	41.0	5	12	90	0.00	29.561 
14:30	42.3	37.9	42.3	95	41.0	7	14	90	0.00	29.554 
14:35	42.3	39.2	42.3	95	41.0	5	12	112	0.00	29.554 
14:40	42.5	39.4	42.5	95	41.2	5	10	112	0.00	29.554 
14:45	42.5	38.7	42.5	95	41.2	6	14	112	0.00	29.551 
14:50	42.6	38.9	42.6	95	41.3	6	11	112	0.00	29.551 
14:55	42.6	38.9	42.6	96	41.5	6	12	112	0.00	29.551 
15:00	42.8	39.8	42.8	96	41.7	5	10	112	0.00	29.545 
15:05	42.8	40.6	42.8	96	41.7	4	11	112	0.00	29.545 
15:10	42.9	42.9	42.9	96	41.8	3	8	112	0.00	29.545 
15:15	43.1	43.1	43.1	96	42.0	3	7	90	0.00	29.551 
15:20	43.1	40.1	43.1	96	42.0	5	9	112	0.00	29.551 
15:25	43.2	41.0	43.2	96	42.1	4	11	90	0.00	29.551 
15:30	43.2	41.0	43.2	96	42.1	4	8	112	0.00	29.551 
15:35	43.2	41.0	43.2	96	42.1	4	11	112	0.00	29.551 
15:40	43.2	43.2	43.2	96	42.1	3	7	112	0.00	29.551 
15:45	43.2	41.0	43.2	96	42.1	4	7	112	0.00	29.552 
15:50	43.3	41.1	43.3	96	42.2	4	10	90	0.00	29.552 
15:55	43.3	41.1	43.3	96	42.2	4	9	112	0.00	29.552 
16:00	43.3	41.1	43.3	96	42.2	4	11	112	0.00	29.553 
16:05	43.3	41.1	43.3	96	42.2	4	7	112	0.00	29.553 
16:10	43.3	40.3	43.3	96	42.2	5	10	112	0.00	29.553 
16:15	43.3	40.3	43.3	96	42.2	5	9	90	0.00	29.541 
16:20	43.3	40.3	43.3	96	42.2	5	10	112	0.00	29.541 
16:25	43.3	41.1	43.3	96	42.2	4	7	112	0.00	29.541 
16:30	43.3	43.3	43.3	96	42.2	2	7	112	0.01	29.549 
16:35	43.3	43.3	43.3	96	42.2	2	5	90	0.00	29.549 
16:40	43.3	43.3	43.3	96	42.2	1	3	68	0.00	29.549 
16:45	43.5	43.5	43.5	96	42.4	2	5	22	0.01	29.553 
16:50	43.5	43.5	43.5	96	42.4	2	6	112	0.00	29.553 
16:55	43.5	43.5	43.5	96	42.4	3	10	112	0.00	29.553 
17:00	43.5	43.5	43.5	96	42.4	3	7	112	0.00	29.562 
17:05	43.3	43.3	43.3	96	42.2	2	6	112	0.00	29.562 
17:10	43.3	43.3	43.3	96	42.2	2	5	112	0.00	29.562 
17:15	43.2	43.2	43.2	96	42.1	2	6	90	0.00	29.565 
17:20	43.1	43.1	43.1	96	42.0	2	7	90	0.00	29.565 
17:25	42.9	40.7	42.9	96	41.8	4	9	112	0.00	29.565 
17:30	42.8	42.8	42.8	96	41.7	2	6	68	0.00	29.556 
17:35	42.8	42.8	42.8	96	41.7	2	5	68	0.00	29.556 
17:40	42.6	42.6	42.6	96	41.5	2	9	45	0.00	29.556 
17:45	42.5	42.5	42.5	96	41.4	3	7	112	0.00	29.564 
17:50	42.2	39.9	42.2	96	41.1	4	10	112	0.00	29.564 
17:55	42.1	42.1	42.1	96	41.0	3	11	90	0.00	29.564 
18:00	41.9	41.9	41.9	96	40.8	3	10	112	0.00	29.566 
18:05	41.6	41.6	41.6	96	40.5	3	8	112	0.00	29.566 
18:10	41.3	38.8	41.3	95	40.0	4	11	112	0.00	29.566 
18:15	40.9	40.9	40.9	95	39.6	3	10	112	0.00	29.562 
18:20	40.6	38.0	40.6	95	39.3	4	11	112	0.00	29.562 
18:25	40.6	40.6	40.6	95	39.3	3	9	112	0.00	29.562 
18:30	40.5	37.9	40.5	95	39.2	4	11	112	0.00	29.570 
18:35	40.5	37.1	40.5	96	39.5	5	10	90	0.00	29.570 
18:40	40.3	37.7	40.3	96	39.3	4	12	112	0.00	29.570 
18:45	40.3	36.8	40.3	96	39.3	5	11	112	0.00	29.576 
18:50	40.1	37.4	40.1	96	39.1	4	14	90	0.00	29.576 
18:55	39.9	37.2	39.9	95	38.6	4	8	90	0.00	29.576 
19:00	39.8	39.8	39.8	95	38.5	3	7	112	0.00	29.588 
19:05	39.6	36.9	39.6	95	38.3	4	12	90	0.00	29.588 
19:10	39.5	36.7	39.5	95	38.2	4	10	112	0.00	29.588 
19:15	39.5	39.5	39.5	95	38.2	3	7	112	0.00	29.590 
19:20	39.3	36.5	39.3	95	38.0	4	12	90	0.00	29.590 
19:25	39.2	36.4	39.2	95	37.9	4	11	112	0.00	29.590 
19:30	39.2	36.4	39.2	95	37.9	4	11	112	0.00	29.589 
19:35	39.1	39.1	39.1	95	37.8	3	9	68	0.00	29.589 
19:40	39.1	39.1	39.1	95	37.8	3	12	90	0.00	29.589 
19:45	38.9	38.9	38.9	95	37.6	2	5	112	0.00	29.591 
19:50	38.9	38.9	38.9	95	37.6	3	10	112	0.01	29.591 
19:55	38.9	38.9	38.9	95	37.6	3	6	90	0.00	29.591 
20:00	38.9	38.9	38.9	95	37.6	3	7	112	0.00	29.604 
20:05	38.8	38.8	38.8	95	37.5	3	7	112	0.00	29.604 
20:10	38.8	38.8	38.8	95	37.5	2	6	45	0.00	29.604 
20:15	38.8	38.8	38.8	95	37.5	2	7	90	0.00	29.612 
20:20	38.8	38.8	38.8	95	37.5	3	6	112	0.00	29.612 
20:25	38.8	38.8	38.8	95	37.5	2	6	68	0.00	29.612 
20:30	38.8	38.8	38.8	95	37.5	2	5	112	0.00	29.610 
20:35	38.8	38.8	38.8	95	37.5	2	6	68	0.00	29.610 
20:40	38.8	38.8	38.8	95	37.5	2	4	90	0.01	29.610 
20:45	38.8	38.8	38.8	95	37.5	2	7	45	0.00	29.619 
20:50	38.8	38.8	38.8	95	37.5	2	6	90	0.00	29.619 
20:55	38.8	38.8	38.8	95	37.5	2	6	45	0.00	29.619 
21:00	38.9	38.9	38.9	95	37.6	2	5	45	0.00	29.616 
21:05	38.9	38.9	38.9	95	37.6	1	3	68	0.00	29.616 
21:10	39.1	39.1	39.1	95	37.8	2	5	90	0.00	29.616 
21:15	39.1	39.1	39.1	95	37.8	2	7	112	0.00	29.615 
21:20	39.2	39.2	39.2	95	37.9	2	6	112	0.00	29.615 
21:25	39.2	39.2	39.2	95	37.9	1	5	112	0.00	29.615 
21:30	39.2	39.2	39.2	95	37.9	1	5	90	0.00	29.620 
21:35	39.2	39.2	39.2	95	37.9	1	3	45	0.00	29.620 
21:40	39.2	39.2	39.2	95	37.9	2	5	90	0.00	29.620 
21:45	39.2	39.2	39.2	95	37.9	2	4	90	0.01	29.630 
21:50	39.2	39.2	39.2	95	37.9	3	7	90	0.00	29.630 
21:55	39.2	39.2	39.2	95	37.9	3	9	112	0.00	29.630 
22:00	39.2	39.2	39.2	95	37.9	3	10	90	0.00	29.634 
22:05	39.2	39.2	39.2	94	37.6	2	6	45	0.00	29.634 
22:10	39.2	36.4	39.2	94	37.6	4	12	112	0.01	29.634 
22:15	39.2	39.2	39.2	94	37.6	2	9	90	0.00	29.627 
22:20	39.2	39.2	39.2	94	37.6	2	10	68	0.00	29.627 
22:25	39.2	39.2	39.2	94	37.6	2	7	90	0.00	29.627 
22:30	39.2	39.2	39.2	94	37.6	3	7	112	0.00	29.633 
22:35	39.2	39.2	39.2	94	37.6	3	6	90	0.00	29.633 
22:40	39.2	39.2	39.2	94	37.6	3	9	112	0.00	29.633 
22:45	39.3	39.3	39.3	94	37.7	2	6	112	0.00	29.637 
22:50	39.3	39.3	39.3	94	37.7	1	3	22	0.00	29.637 
22:55	39.3	39.3	39.3	94	37.7	2	5	112	0.00	29.637 
23:00	39.3	39.3	39.3	94	37.7	2	6	45	0.00	29.637 
23:05	39.3	39.3	39.3	94	37.7	2	4	90	0.00	29.637 
23:10	39.3	39.3	39.3	94	37.7	2	6	112	0.00	29.637 
23:15	39.3	39.3	39.3	94	37.7	1	4	45	0.00	29.639 
23:20	39.3	39.3	39.3	94	37.7	1	4	68	0.00	29.639 
23:25	39.3	39.3	39.3	94	37.7	1	4	112	0.00	29.639 
23:30	39.3	39.3	39.3	94	37.7	1	3	112	0.00	29.648 
23:35	39.5	39.5	39.5	94	37.9	1	3	90	0.00	29.648 
23:40	39.5	39.5	39.5	94	37.9	1	4	90	0.00	29.648 
23:45	39.5	39.5	39.5	94	37.9	1	3	112	0.00	29.642 
23:50	39.5	39.5	39.5	94	37.9	2	6	112	0.00	29.642 
23:55	39.5	39.5	39.5	94	37.9	1	5	90	0.00	29.642 

CoCoRaHS
IN-AL-39
A2 Web Hosting
Creative Commons License
GoDaddy
Look for:

loaded 2017-10-19 14:15:09 • last modified 2010-11-18 10:43:29
Privacy PolicyDisclaimer
• wx.awcolley.com is powered by PmWiki v.2002016 •
• all content (unless otherwise noted) © 2017 A W Colley